This is the latest recevied weather packets stored in our database for station/object AI5KP-13. If no packets are shown the sender has not sent any weather packets the latest 10 day(s).
| Time | Temp. | Humidity | Pressure | Rain* | Wind** | Luminosity | Snow |
|---|---|---|---|---|---|---|---|
| 1777629701 | 6.67° C | 96% | 1017.2 hPa | 0 mm | - | 0 W/m² | - |
| 1777629397 | 6.11° C | 96% | 1017.3 hPa | 0 mm | - | 0 W/m² | - |
| 1777629092 | 6.11° C | 96% | 1017.2 hPa | 0 mm | - | 0 W/m² | - |
| 1777628789 | 6.11° C | 96% | 1017.1 hPa | 0 mm | - | 0 W/m² | - |
| 1777628486 | 6.67° C | 96% | 1017.2 hPa | 0 mm | - | 0 W/m² | - |
| 1777628182 | 6.67° C | 96% | 1017.3 hPa | 0 mm | - | 0 W/m² | - |
| 1777627878 | 6.67° C | 96% | 1017.2 hPa | 0 mm | - | 0 W/m² | - |
| 1777627577 | 6.67° C | 96% | 1017.1 hPa | 0 mm | - | 0 W/m² | - |
| 1777627271 | 6.67° C | 96% | 1017.1 hPa | 0 mm | - | 0 W/m² | - |
| 1777626969 | 6.67° C | 96% | 1016.9 hPa | 0 mm | - | 0 W/m² | - |
| 1777626665 | 6.67° C | 96% | 1017 hPa | 0 mm | - | 0 W/m² | - |
| 1777626361 | 6.67° C | 96% | 1016.9 hPa | 0 mm | - | 0 W/m² | - |
| 1777626059 | 7.22° C | 96% | 1016.9 hPa | 0 mm | - | 0 W/m² | - |
| 1777625755 | 6.67° C | 96% | 1017 hPa | 0 mm | - | 0 W/m² | - |
| 1777625450 | 7.22° C | 96% | 1016.9 hPa | 0 mm | - | 0 W/m² | - |
| 1777625146 | 7.22° C | 96% | 1016.8 hPa | 0 mm | - | 0 W/m² | - |
| 1777624843 | 7.22° C | 96% | 1016.9 hPa | 0 mm | - | 0 W/m² | - |
| 1777624538 | 7.22° C | 96% | 1017 hPa | 0 mm | - | 0 W/m² | - |
| 1777624233 | 7.78° C | 96% | 1016.8 hPa | 0 mm | - | 0 W/m² | - |
| 1777623927 | 7.78° C | 96% | 1016.9 hPa | 0 mm | - | 0 W/m² | - |
| 1777623623 | 7.22° C | 96% | 1017.1 hPa | 0 mm | - | 0 W/m² | - |
| 1777623322 | 7.78° C | 96% | 1016.8 hPa | 0 mm | - | 0 W/m² | - |
| 1777623018 | 7.22° C | 96% | 1017 hPa | 0 mm | - | 0 W/m² | - |
| 1777622710 | 7.78° C | 96% | 1016.8 hPa | 0 mm | - | 0 W/m² | - |
| 1777622406 | 7.78° C | 96% | 1016.7 hPa | 0 mm | - | 0 W/m² | - |
* Rain latest hour (hover to see other rain measurements)
** Current wind speed in m/s (hover to see current wind gust speed)